createdAt,value
2022-12-16T00:01:11.408Z,-1.64
2022-12-16T00:04:13.385Z,-1.59
2022-12-16T00:07:15.299Z,-1.51
2022-12-16T00:10:20.282Z,-1.63
2022-12-16T00:13:22.261Z,-1.68
2022-12-16T00:16:25.630Z,-1.51
2022-12-16T00:19:27.676Z,-1.61
2022-12-16T00:22:29.552Z,-1.55
2022-12-16T00:25:31.503Z,-1.66
2022-12-16T00:28:33.618Z,-1.58
2022-12-16T00:31:36.965Z,-1.57
2022-12-16T00:34:38.925Z,-1.57
2022-12-16T00:37:40.829Z,-1.54
2022-12-16T00:40:43.658Z,-1.52
2022-12-16T00:43:45.509Z,-1.53
2022-12-16T00:46:50.873Z,-1.59
2022-12-16T00:49:52.710Z,-1.52
2022-12-16T00:52:56.857Z,-1.54
2022-12-16T00:56:02.933Z,-1.53
2022-12-16T00:59:04.809Z,-1.61
2022-12-16T01:02:08.272Z,-1.61
2022-12-16T01:05:11.977Z,-1.51
2022-12-16T01:08:13.900Z,-1.48
2022-12-16T01:11:16.949Z,-1.46
2022-12-16T01:14:18.879Z,-1.59
2022-12-16T01:17:22.219Z,-1.50
2022-12-16T01:20:24.201Z,-1.49
2022-12-16T01:23:26.404Z,-1.46
2022-12-16T01:26:28.332Z,-1.50
2022-12-16T01:29:30.258Z,-1.46
2022-12-16T01:32:36.499Z,-1.55
2022-12-16T01:35:55.583Z,-1.42
2022-12-16T01:38:57.767Z,-1.41
2022-12-16T01:41:59.669Z,-1.48
2022-12-16T01:45:29.805Z,-1.44
2022-12-16T01:48:36.296Z,-1.53
2022-12-16T01:51:47.352Z,-1.51
2022-12-16T01:54:56.501Z,-1.48
2022-12-16T01:58:07.074Z,-1.43
2022-12-16T02:01:09.283Z,-1.38
2022-12-16T02:04:12.991Z,-1.34
2022-12-16T02:07:14.920Z,-1.39
2022-12-16T02:10:17.607Z,-1.44
2022-12-16T02:13:24.600Z,-1.52
2022-12-16T02:16:35.987Z,-1.53
2022-12-16T02:20:10.839Z,-1.42
2022-12-16T02:23:43.052Z,-1.39
2022-12-16T02:27:19.603Z,-1.28
2022-12-16T02:31:03.345Z,-1.27
2022-12-16T02:34:25.051Z,-1.23
2022-12-16T02:37:36.347Z,-1.27
2022-12-16T02:40:46.084Z,-1.22
2022-12-16T02:43:53.390Z,-1.21
2022-12-16T02:46:56.128Z,-1.30
2022-12-16T02:50:00.454Z,-1.38
2022-12-16T02:53:03.530Z,-1.29
2022-12-16T02:56:15.916Z,-1.33
2022-12-16T02:59:24.599Z,-1.33
2022-12-16T03:02:33.176Z,-1.23
2022-12-16T03:05:40.568Z,-1.29
2022-12-16T03:08:48.377Z,-1.35
2022-12-16T03:11:52.738Z,-1.34
2022-12-16T03:14:55.163Z,-1.18
2022-12-16T03:18:00.329Z,-1.20
2022-12-16T03:21:06.602Z,-1.28
2022-12-16T03:24:11.773Z,-1.25
2022-12-16T03:27:19.142Z,-1.20
2022-12-16T03:30:26.620Z,-1.24
2022-12-16T03:33:35.184Z,-1.26
2022-12-16T03:36:41.840Z,-1.21
2022-12-16T03:39:47.617Z,-1.17
2022-12-16T03:42:51.389Z,-1.16
2022-12-16T03:45:58.124Z,-1.17
2022-12-16T03:49:00.384Z,-1.18
2022-12-16T03:52:03.862Z,-1.17
2022-12-16T03:55:06.087Z,-1.20
2022-12-16T03:58:08.107Z,-1.19
2022-12-16T04:01:10.473Z,-1.20
2022-12-16T04:04:12.688Z,-1.34
2022-12-16T04:07:16.183Z,-1.28
2022-12-16T04:10:18.180Z,-1.16
2022-12-16T04:13:20.369Z,-1.14
2022-12-16T04:16:22.615Z,-1.16
2022-12-16T04:19:28.636Z,-1.13
2022-12-16T04:22:34.489Z,-1.13
2022-12-16T04:25:37.871Z,-1.12
2022-12-16T04:28:40.291Z,-1.15
2022-12-16T04:31:42.239Z,-1.15
2022-12-16T04:34:44.112Z,-1.04
2022-12-16T04:37:48.594Z,-1.06
2022-12-16T04:40:50.497Z,-1.04
2022-12-16T04:43:52.648Z,-1.08
2022-12-16T04:46:54.731Z,-1.06
2022-12-16T04:49:56.615Z,-1.09
2022-12-16T04:52:59.862Z,-1.21
2022-12-16T04:56:04.964Z,-1.16
2022-12-16T04:59:08.814Z,-1.15
2022-12-16T05:02:10.809Z,-1.17
2022-12-16T05:05:12.901Z,-1.08
2022-12-16T05:08:16.131Z,-1.02
2022-12-16T05:11:18.091Z,-0.97
2022-12-16T05:14:20.076Z,-0.96
2022-12-16T05:17:25.504Z,-0.91
2022-12-16T05:20:27.509Z,-0.90
2022-12-16T05:23:31.061Z,-0.88
2022-12-16T05:26:33.474Z,-0.89
2022-12-16T05:29:35.340Z,-0.92
2022-12-16T05:32:37.265Z,-0.96
2022-12-16T05:35:39.205Z,-0.91
2022-12-16T05:38:42.508Z,-0.88
2022-12-16T05:41:46.794Z,-0.87
2022-12-16T05:44:48.687Z,-0.86
2022-12-16T05:47:50.591Z,-0.83
2022-12-16T05:50:52.555Z,-0.81
2022-12-16T05:53:55.880Z,-0.82
2022-12-16T05:56:57.785Z,-0.82
2022-12-16T06:00:01.995Z,-0.79
2022-12-16T06:03:04.169Z,-0.87
2022-12-16T06:06:06.722Z,-0.89
2022-12-16T06:09:10.044Z,-0.86
2022-12-16T06:12:11.953Z,-0.90
2022-12-16T06:15:14.062Z,-0.87
2022-12-16T06:18:16.148Z,-0.86
2022-12-16T06:21:18.096Z,-1.02
2022-12-16T06:24:23.744Z,-0.99
2022-12-16T06:27:25.662Z,-1.03
2022-12-16T06:30:27.576Z,-0.92
2022-12-16T06:33:29.574Z,-0.90
2022-12-16T06:36:34.066Z,-0.83
2022-12-16T06:39:37.340Z,-0.84
2022-12-16T06:42:40.427Z,-0.81
2022-12-16T06:45:42.603Z,-0.79
2022-12-16T06:48:44.579Z,-0.77
2022-12-16T06:51:46.556Z,-0.77
2022-12-16T06:54:49.805Z,-0.75
2022-12-16T06:57:57.347Z,-0.76
2022-12-16T07:00:59.289Z,-0.78
2022-12-16T07:04:01.261Z,-0.76
2022-12-16T07:07:03.367Z,-0.73
2022-12-16T07:10:08.889Z,-0.71
2022-12-16T07:13:10.761Z,-0.70
2022-12-16T07:16:12.913Z,-0.72
2022-12-16T07:19:15.465Z,-0.76
2022-12-16T07:22:17.368Z,-0.71
2022-12-16T07:25:20.672Z,-0.70
2022-12-16T07:28:25.832Z,-0.66
2022-12-16T07:31:27.847Z,-0.64
2022-12-16T07:34:29.882Z,-0.71
2022-12-16T07:37:31.792Z,-0.70
2022-12-16T07:40:35.274Z,-0.66
2022-12-16T07:43:37.233Z,-0.75
2022-12-16T07:46:39.148Z,-0.75
2022-12-16T07:49:41.051Z,-0.68
2022-12-16T07:52:43.907Z,-0.66
2022-12-16T07:55:51.543Z,-0.61
2022-12-16T07:58:55.419Z,-0.65
2022-12-16T08:01:57.547Z,-0.65
2022-12-16T08:04:59.714Z,-0.71
2022-12-16T08:08:04.224Z,-0.73
2022-12-16T08:11:08.780Z,-0.65
2022-12-16T08:14:11.943Z,-0.69
2022-12-16T08:17:13.887Z,-0.67
2022-12-16T08:20:16.098Z,-0.66
2022-12-16T08:23:18.085Z,-0.56
2022-12-16T08:26:21.651Z,-0.51
2022-12-16T08:32:45.417Z,-0.54
2022-12-16T08:35:47.409Z,-0.55
2022-12-16T08:38:49.289Z,-0.52
2022-12-16T08:41:52.612Z,-0.48
2022-12-16T08:44:54.762Z,-0.48
2022-12-16T08:47:56.664Z,-0.51
2022-12-16T08:51:01.153Z,-0.44
2022-12-16T08:54:03.071Z,-0.44
2022-12-16T08:57:06.343Z,-0.41
2022-12-16T09:00:09.443Z,-0.44
2022-12-16T09:03:11.569Z,-0.44
2022-12-16T09:06:13.726Z,-0.45
2022-12-16T09:09:15.679Z,-0.41
2022-12-16T09:12:19.214Z,-0.45
2022-12-16T09:15:21.147Z,-0.42
2022-12-16T09:18:23.054Z,-0.42
2022-12-16T09:21:27.711Z,-0.40
2022-12-16T09:24:33.871Z,-0.40
2022-12-16T09:27:37.328Z,-0.39
2022-12-16T09:30:42.403Z,-0.41
2022-12-16T09:33:44.372Z,-0.41
2022-12-16T09:36:46.421Z,-0.42
2022-12-16T09:39:48.952Z,-0.41
2022-12-16T09:43:31.405Z,-0.38
2022-12-16T09:47:08.220Z,-0.35
2022-12-16T09:50:31.649Z,-0.35
2022-12-16T09:53:56.159Z,-0.33
2022-12-16T09:57:02.396Z,-0.34
2022-12-16T10:00:12.649Z,-0.32
2022-12-16T10:03:22.888Z,-0.34
2022-12-16T10:06:42.505Z,-0.29
2022-12-16T10:09:57.353Z,-0.39
2022-12-16T10:13:07.453Z,-0.42
2022-12-16T10:16:22.589Z,-0.43
2022-12-16T10:19:38.215Z,-0.41
2022-12-16T10:22:49.258Z,-0.39
2022-12-16T10:26:00.466Z,-0.35
2022-12-16T10:29:13.695Z,-0.29
2022-12-16T10:32:22.414Z,-0.21
2022-12-16T10:35:29.135Z,-0.25
2022-12-16T10:38:53.364Z,-0.25
2022-12-16T10:42:22.567Z,-0.22
2022-12-16T10:45:48.884Z,-0.17
2022-12-16T10:49:14.800Z,-0.16
2022-12-16T10:52:44.329Z,-0.12
2022-12-16T10:56:17.980Z,-0.07
2022-12-16T10:59:42.542Z,-0.03
2022-12-16T11:03:19.529Z,-0.02
2022-12-16T11:06:42.892Z,0.04
2022-12-16T11:10:25.102Z,0.04
2022-12-16T11:13:34.050Z,0.06
2022-12-16T11:16:40.405Z,0.03
2022-12-16T11:20:07.642Z,0.01
2022-12-16T11:23:25.021Z,0.02
2022-12-16T11:26:52.470Z,0.05
2022-12-16T11:29:57.048Z,0.03
2022-12-16T11:33:02.734Z,0.01
2022-12-16T11:36:13.692Z,0.01
2022-12-16T11:39:20.332Z,0.07
2022-12-16T11:42:27.717Z,0.09
2022-12-16T11:45:32.352Z,0.09
2022-12-16T11:48:40.878Z,0.14
2022-12-16T11:51:45.237Z,0.15
2022-12-16T11:54:57.545Z,0.20
2022-12-16T11:58:09.152Z,0.22
2022-12-16T12:01:17.052Z,0.15
2022-12-16T12:04:19.831Z,0.18
2022-12-16T12:07:27.609Z,0.15
2022-12-16T12:10:45.470Z,0.17
2022-12-16T12:13:58.604Z,0.16
2022-12-16T12:17:11.073Z,0.21
2022-12-16T12:20:34.571Z,0.21
2022-12-16T12:23:51.503Z,0.25
2022-12-16T12:27:02.041Z,0.24
2022-12-16T12:30:16.626Z,0.28
2022-12-16T12:33:30.891Z,0.31
2022-12-16T12:36:44.472Z,0.27
2022-12-16T12:39:52.339Z,0.25
2022-12-16T12:42:56.887Z,0.16
2022-12-16T12:46:07.264Z,0.12
2022-12-16T12:49:16.427Z,0.09
2022-12-16T12:52:23.444Z,-0.05
2022-12-16T12:55:33.252Z,-0.05
2022-12-16T12:58:39.152Z,0.02
2022-12-16T13:01:43.290Z,0.01
2022-12-16T13:04:47.981Z,-0.22
2022-12-16T13:07:49.826Z,-0.12
2022-12-16T13:11:12.296Z,-0.04
2022-12-16T13:14:55.556Z,-0.14
2022-12-16T13:18:20.995Z,-0.07
2022-12-16T13:21:47.887Z,-0.04
2022-12-16T13:24:50.921Z,-0.06
2022-12-16T13:27:58.151Z,-0.14
2022-12-16T13:31:05.010Z,-0.27
2022-12-16T13:34:20.400Z,-0.44
2022-12-16T13:37:33.646Z,-0.55
2022-12-16T13:40:56.762Z,-0.70
2022-12-16T13:43:59.466Z,-0.74
2022-12-16T13:47:02.631Z,-0.60
2022-12-16T13:50:39.039Z,-0.70
2022-12-16T13:53:46.317Z,-0.70
2022-12-16T13:56:49.885Z,-0.63
2022-12-16T13:59:51.973Z,-0.61
2022-12-16T14:02:57.672Z,-0.52
2022-12-16T14:06:01.587Z,-0.48
2022-12-16T14:09:04.319Z,-0.45
2022-12-16T14:12:15.541Z,-0.68
2022-12-16T14:15:26.811Z,-0.56
2022-12-16T14:18:43.740Z,-0.53
2022-12-16T14:21:53.716Z,-0.43
2022-12-16T14:25:02.204Z,-0.43
2022-12-16T14:28:14.701Z,-0.57
2022-12-16T14:31:21.223Z,-0.56
2022-12-16T14:34:25.858Z,-0.75
2022-12-16T14:37:34.309Z,-0.72
2022-12-16T14:40:36.128Z,-0.89
2022-12-16T14:43:43.682Z,-0.88
2022-12-16T14:46:50.664Z,-0.80
2022-12-16T14:49:54.778Z,-0.84
2022-12-16T14:53:12.745Z,-0.79
2022-12-16T14:56:18.770Z,-0.82
2022-12-16T14:59:21.147Z,-0.67
2022-12-16T15:02:30.722Z,-0.71
2022-12-16T15:05:38.081Z,-0.93
2022-12-16T15:08:49.382Z,-1.00
2022-12-16T15:11:55.293Z,-1.18
2022-12-16T15:14:57.946Z,-1.07
2022-12-16T15:18:02.506Z,-1.18
2022-12-16T15:21:09.644Z,-1.25
2022-12-16T15:24:17.676Z,-1.10
2022-12-16T15:27:28.744Z,-1.19
2022-12-16T15:30:35.806Z,-1.24
2022-12-16T15:33:39.188Z,-1.21
2022-12-16T15:36:45.865Z,-1.08
2022-12-16T15:39:47.729Z,-1.12
2022-12-16T15:42:52.694Z,-1.07
2022-12-16T15:45:54.550Z,-1.04
2022-12-16T15:48:56.480Z,-0.99
2022-12-16T15:52:00.767Z,-1.02
2022-12-16T15:55:02.629Z,-0.99
2022-12-16T15:58:13.213Z,-0.93
2022-12-16T16:01:18.748Z,-1.03
2022-12-16T16:04:24.453Z,-0.94
2022-12-16T16:07:27.727Z,-0.89
2022-12-16T16:10:29.696Z,-0.87
2022-12-16T16:13:31.868Z,-0.85
2022-12-16T16:16:34.022Z,-0.77
2022-12-16T16:19:35.810Z,-0.89
2022-12-16T16:22:38.994Z,-0.90
2022-12-16T16:25:40.874Z,-0.99
2022-12-16T16:28:42.988Z,-1.14
2022-12-16T16:31:46.670Z,-1.05
2022-12-16T16:34:48.515Z,-1.24
2022-12-16T16:37:51.772Z,-1.20
2022-12-16T16:40:53.575Z,-1.15
2022-12-16T16:43:57.000Z,-1.15
2022-12-16T16:46:59.588Z,-1.12
2022-12-16T16:50:02.206Z,-1.08
2022-12-16T16:53:05.464Z,-1.14
2022-12-16T16:56:13.791Z,-1.04
2022-12-16T16:59:21.354Z,-1.11
2022-12-16T17:02:24.517Z,-1.13
2022-12-16T17:05:26.463Z,-1.10
2022-12-16T17:08:29.634Z,-1.17
2022-12-16T17:11:33.025Z,-1.07
2022-12-16T17:14:34.847Z,-1.14
2022-12-16T17:17:36.725Z,-1.21
2022-12-16T17:20:38.542Z,-1.28
2022-12-16T17:23:44.118Z,-1.36
2022-12-16T17:26:45.968Z,-1.31
2022-12-16T17:29:47.904Z,-1.21
2022-12-16T17:32:51.586Z,-1.18
2022-12-16T17:35:53.366Z,-1.37
2022-12-16T17:38:56.801Z,-1.28
2022-12-16T17:42:00.211Z,-1.44
2022-12-16T17:45:02.132Z,-1.57
2022-12-16T17:48:04.483Z,-1.48
2022-12-16T17:51:06.325Z,-1.48
2022-12-16T17:54:19.700Z,-1.43
2022-12-16T17:57:27.344Z,-1.62
2022-12-16T18:00:29.199Z,-1.81
2022-12-16T18:03:31.341Z,-1.79
2022-12-16T18:06:33.700Z,-1.87
2022-12-16T18:09:40.799Z,-1.87
2022-12-16T18:12:43.148Z,-1.74
2022-12-16T18:15:52.199Z,-1.69
2022-12-16T18:18:54.164Z,-1.66
2022-12-16T18:21:56.720Z,-1.73
2022-12-16T18:25:00.446Z,-1.59
2022-12-16T18:28:05.895Z,-1.89
2022-12-16T18:31:07.916Z,-1.85
2022-12-16T18:34:09.830Z,-1.80
2022-12-16T18:37:14.620Z,-1.87
2022-12-16T18:40:19.508Z,-1.88
2022-12-16T18:43:24.166Z,-1.85
2022-12-16T18:46:26.601Z,-1.86
2022-12-16T18:49:29.223Z,-1.92
2022-12-16T18:52:32.716Z,-1.78
2022-12-16T18:55:37.425Z,-2.00
2022-12-16T18:58:54.859Z,-1.94
2022-12-16T19:01:57.302Z,-1.91
2022-12-16T19:05:00.656Z,-1.94
2022-12-16T19:08:02.718Z,-1.96
2022-12-16T19:11:06.092Z,-1.95
2022-12-16T19:14:09.456Z,-1.89
2022-12-16T19:17:11.695Z,-1.75
2022-12-16T19:20:13.826Z,-1.76
2022-12-16T19:23:16.571Z,-1.78
2022-12-16T19:26:21.984Z,-2.01
2022-12-16T19:29:30.759Z,-1.91
2022-12-16T19:32:35.152Z,-1.81
2022-12-16T19:35:44.875Z,-1.85
2022-12-16T19:38:48.606Z,-1.78
2022-12-16T19:41:53.487Z,-1.87
2022-12-16T19:44:59.315Z,-1.89
2022-12-16T19:48:01.923Z,-1.84
2022-12-16T19:51:06.444Z,-2.02
2022-12-16T19:54:08.738Z,-2.00
2022-12-16T19:57:14.170Z,-2.05
2022-12-16T20:00:16.631Z,-2.12
2022-12-16T20:03:19.521Z,-2.11
2022-12-16T20:06:22.497Z,-2.05
2022-12-16T20:09:25.078Z,-2.00
2022-12-16T20:12:31.874Z,-2.13
2022-12-16T20:15:35.028Z,-2.00
2022-12-16T20:18:37.916Z,-1.96
2022-12-16T20:21:42.221Z,-1.93
2022-12-16T20:24:45.286Z,-1.88
2022-12-16T20:27:50.132Z,-1.90
2022-12-16T20:30:52.384Z,-1.90
2022-12-16T20:34:02.727Z,-1.96
2022-12-16T20:37:05.775Z,-1.95
2022-12-16T20:40:09.675Z,-1.97
2022-12-16T20:43:13.938Z,-1.98
2022-12-16T20:46:16.542Z,-1.95
2022-12-16T20:49:20.239Z,-1.93
2022-12-16T20:52:23.101Z,-1.81
2022-12-16T20:55:25.647Z,-1.77
2022-12-16T20:58:29.744Z,-1.81
2022-12-16T21:01:32.627Z,-1.78
2022-12-16T21:04:35.001Z,-1.71
2022-12-16T21:07:37.600Z,-1.74
2022-12-16T21:10:39.953Z,-1.68
2022-12-16T21:13:43.886Z,-1.64
2022-12-16T21:16:46.532Z,-1.63
2022-12-16T21:19:49.701Z,-1.60
2022-12-16T21:22:59.062Z,-1.57
2022-12-16T21:26:01.040Z,-1.58
2022-12-16T21:29:15.882Z,-1.53
2022-12-16T21:32:18.111Z,-1.50
2022-12-16T21:35:20.706Z,-1.52
2022-12-16T21:38:23.356Z,-1.53
2022-12-16T21:41:26.632Z,-1.52
2022-12-16T21:44:30.330Z,-1.53
2022-12-16T21:47:32.674Z,-1.54
2022-12-16T21:50:35.843Z,-1.49
2022-12-16T21:53:38.110Z,-1.51
2022-12-16T21:56:40.507Z,-1.47
2022-12-16T21:59:44.160Z,-1.48
2022-12-16T22:02:46.340Z,-1.60
2022-12-16T22:05:48.668Z,-1.62
2022-12-16T22:08:51.777Z,-1.67
2022-12-16T22:11:54.008Z,-1.79
2022-12-16T22:15:00.177Z,-1.77
2022-12-16T22:18:08.748Z,-1.72
2022-12-16T22:21:12.008Z,-1.69
2022-12-16T22:24:14.464Z,-1.69
2022-12-16T22:27:16.952Z,-1.67
2022-12-16T22:30:20.567Z,-1.71
2022-12-16T22:33:22.765Z,-1.77
2022-12-16T22:36:24.990Z,-1.78
2022-12-16T22:39:27.138Z,-1.75
2022-12-16T22:42:29.443Z,-1.73
2022-12-16T22:45:34.216Z,-1.69
2022-12-16T22:48:39.289Z,-1.70
2022-12-16T22:51:42.426Z,-1.70
2022-12-16T22:54:50.390Z,-1.82
2022-12-16T22:57:54.233Z,-1.78
2022-12-16T23:00:57.877Z,-1.92
2022-12-16T23:04:00.140Z,-2.00
2022-12-16T23:07:02.338Z,-2.16
2022-12-16T23:10:05.311Z,-2.17
2022-12-16T23:13:10.535Z,-2.10
2022-12-16T23:16:15.782Z,-2.20
2022-12-16T23:19:17.941Z,-2.15
2022-12-16T23:22:20.169Z,-2.23
2022-12-16T23:25:22.340Z,-2.39
2022-12-16T23:28:24.667Z,-2.32
2022-12-16T23:31:28.851Z,-2.39
2022-12-16T23:34:31.476Z,-2.41
2022-12-16T23:37:33.328Z,-2.42
2022-12-16T23:40:35.219Z,-2.43
2022-12-16T23:43:37.193Z,-2.49
2022-12-16T23:46:40.676Z,-2.49
2022-12-16T23:49:42.608Z,-2.47
2022-12-16T23:52:44.439Z,-2.51
2022-12-16T23:55:46.344Z,-2.50
2022-12-16T23:58:48.374Z,-2.55
